sensor_id;sensor_type;location;lat;lon;timestamp;pressure;altitude;pressure_sealevel;temperature;humidity
59419;BME280;45224;50.904;6.038;2023-05-23T00:00:57;100032.19;;;16.18;95.99
59419;BME280;45224;50.904;6.038;2023-05-23T00:02:27;100048.72;;;16.18;95.93
59419;BME280;45224;50.904;6.038;2023-05-23T00:03:59;100046.88;;;16.23;94.78
59419;BME280;45224;50.904;6.038;2023-05-23T00:05:30;100042.44;;;16.27;94.48
59419;BME280;45224;50.904;6.038;2023-05-23T00:07:02;100053.88;;;16.21;95.24
59419;BME280;45224;50.904;6.038;2023-05-23T00:08:33;100044.47;;;16.13;96.12
59419;BME280;45224;50.904;6.038;2023-05-23T00:10:04;100044.38;;;16.17;95.79
59419;BME280;45224;50.904;6.038;2023-05-23T00:11:34;100046.13;;;16.17;95.55
59419;BME280;45224;50.904;6.038;2023-05-23T00:13:06;100041.88;;;16.11;95.97
59419;BME280;45224;50.904;6.038;2023-05-23T00:14:38;100044.44;;;16.14;95.51
59419;BME280;45224;50.904;6.038;2023-05-23T00:16:09;100048.78;;;16.14;95.39
59419;BME280;45224;50.904;6.038;2023-05-23T00:17:39;100035.06;;;16.04;95.89
59419;BME280;45224;50.904;6.038;2023-05-23T00:19:11;100048.94;;;16.06;95.33
59419;BME280;45224;50.904;6.038;2023-05-23T00:20:44;100045.56;;;16.01;96.26
59419;BME280;45224;50.904;6.038;2023-05-23T00:22:14;100042.91;;;16.02;95.85
59419;BME280;45224;50.904;6.038;2023-05-23T00:23:45;100043.75;;;16.03;95.35
59419;BME280;45224;50.904;6.038;2023-05-23T00:25:16;100047.50;;;15.90;96.58
59419;BME280;45224;50.904;6.038;2023-05-23T00:26:46;100042.22;;;15.93;96.12
59419;BME280;45224;50.904;6.038;2023-05-23T00:28:17;100040.50;;;15.92;95.57
59419;BME280;45224;50.904;6.038;2023-05-23T00:29:48;100045.59;;;15.98;95.22
59419;BME280;45224;50.904;6.038;2023-05-23T00:31:18;100048.19;;;15.99;94.71
59419;BME280;45224;50.904;6.038;2023-05-23T00:32:49;100043.03;;;15.95;95.23
59419;BME280;45224;50.904;6.038;2023-05-23T00:34:19;100042.34;;;15.86;95.58
59419;BME280;45224;50.904;6.038;2023-05-23T00:35:50;100044.06;;;15.87;95.41
59419;BME280;45224;50.904;6.038;2023-05-23T00:37:21;100033.91;;;15.69;96.66
59419;BME280;45224;50.904;6.038;2023-05-23T00:38:51;100032.06;;;15.77;95.76
59419;BME280;45224;50.904;6.038;2023-05-23T00:40:22;100040.94;;;15.64;96.97
59419;BME280;45224;50.904;6.038;2023-05-23T00:41:53;100042.53;;;15.71;96.08
59419;BME280;45224;50.904;6.038;2023-05-23T00:43:23;100048.59;;;15.75;95.49
59419;BME280;45224;50.904;6.038;2023-05-23T00:44:54;100049.63;;;15.63;96.36
59419;BME280;45224;50.904;6.038;2023-05-23T00:46:25;100046.31;;;15.53;97.13
59419;BME280;45224;50.904;6.038;2023-05-23T00:47:56;100052.31;;;15.58;96.52
59419;BME280;45224;50.904;6.038;2023-05-23T00:49:28;100036.75;;;15.55;96.22
59419;BME280;45224;50.904;6.038;2023-05-23T00:50:59;100048.88;;;15.56;96.61
59419;BME280;45224;50.904;6.038;2023-05-23T00:52:30;100043.75;;;15.51;96.84
59419;BME280;45224;50.904;6.038;2023-05-23T00:54:03;100060.38;;;15.44;97.65
59419;BME280;45224;50.904;6.038;2023-05-23T00:55:34;100058.63;;;15.43;97.17
59419;BME280;45224;50.904;6.038;2023-05-23T00:57:05;100062.16;;;15.42;97.44
59419;BME280;45224;50.904;6.038;2023-05-23T00:58:36;100067.44;;;15.36;98.65
59419;BME280;45224;50.904;6.038;2023-05-23T01:00:11;100067.59;;;15.25;99.62
59419;BME280;45224;50.904;6.038;2023-05-23T01:01:43;100063.97;;;15.34;97.98
59419;BME280;45224;50.904;6.038;2023-05-23T01:03:15;100072.69;;;15.33;97.38
59419;BME280;45224;50.904;6.038;2023-05-23T01:04:48;100069.34;;;15.25;98.42
59419;BME280;45224;50.904;6.038;2023-05-23T01:06:26;100067.72;;;15.18;99.31
59419;BME280;45224;50.904;6.038;2023-05-23T01:07:59;100079.31;;;14.93;100.00
59419;BME280;45224;50.904;6.038;2023-05-23T01:09:32;100075.88;;;14.93;100.00
59419;BME280;45224;50.904;6.038;2023-05-23T01:11:11;100068.22;;;14.81;100.00
59419;BME280;45224;50.904;6.038;2023-05-23T01:14:54;100079.25;;;15.00;99.98
59419;BME280;45224;50.904;6.038;2023-05-23T01:16:43;100084.69;;;14.83;100.00
59419;BME280;45224;50.904;6.038;2023-05-23T01:18:28;100078.59;;;14.84;100.00
59419;BME280;45224;50.904;6.038;2023-05-23T01:20:10;100079.56;;;14.75;100.00
59419;BME280;45224;50.904;6.038;2023-05-23T01:21:43;100082.22;;;14.70;100.00
59419;BME280;45224;50.904;6.038;2023-05-23T01:27:40;100081.38;;;14.70;100.00
59419;BME280;45224;50.904;6.038;2023-05-23T01:29:21;100078.97;;;14.50;100.00
59419;BME280;45224;50.904;6.038;2023-05-23T01:30:56;100081.47;;;14.57;100.00
59419;BME280;45224;50.904;6.038;2023-05-23T01:32:27;100084.03;;;14.65;100.00
59419;BME280;45224;50.904;6.038;2023-05-23T01:33:58;100085.84;;;14.60;100.00
59419;BME280;45224;50.904;6.038;2023-05-23T01:35:30;100089.41;;;14.47;100.00
59419;BME280;45224;50.904;6.038;2023-05-23T01:37:07;100086.72;;;14.53;100.00
59419;BME280;45224;50.904;6.038;2023-05-23T01:38:39;100088.31;;;14.68;100.00
59419;BME280;45224;50.904;6.038;2023-05-23T01:40:10;100090.91;;;14.69;100.00
59419;BME280;45224;50.904;6.038;2023-05-23T01:41:41;100085.19;;;14.36;100.00
59419;BME280;45224;50.904;6.038;2023-05-23T01:43:11;100088.47;;;14.52;100.00
59419;BME280;45224;50.904;6.038;2023-05-23T01:44:44;100084.13;;;14.53;100.00
59419;BME280;45224;50.904;6.038;2023-05-23T01:46:15;100081.47;;;14.60;100.00
59419;BME280;45224;50.904;6.038;2023-05-23T01:47:48;100091.00;;;14.63;100.00
59419;BME280;45224;50.904;6.038;2023-05-23T01:49:21;100090.03;;;14.70;100.00
59419;BME280;45224;50.904;6.038;2023-05-23T01:50:52;100090.13;;;14.61;100.00
59419;BME280;45224;50.904;6.038;2023-05-23T01:52:23;100085.84;;;14.60;100.00
59419;BME280;45224;50.904;6.038;2023-05-23T01:53:55;100092.66;;;14.69;100.00
59419;BME280;45224;50.904;6.038;2023-05-23T01:55:26;100094.41;;;14.68;100.00
59419;BME280;45224;50.904;6.038;2023-05-23T01:56:57;100097.81;;;14.73;100.00
59419;BME280;45224;50.904;6.038;2023-05-23T01:58:28;100097.84;;;14.70;100.00
59419;BME280;45224;50.904;6.038;2023-05-23T02:00:01;100097.91;;;14.64;100.00
59419;BME280;45224;50.904;6.038;2023-05-23T02:01:33;100097.09;;;14.60;100.00
59419;BME280;45224;50.904;6.038;2023-05-23T02:03:04;100103.13;;;14.64;100.00
59419;BME280;45224;50.904;6.038;2023-05-23T02:04:36;100104.97;;;14.50;100.00
59419;BME280;45224;50.904;6.038;2023-05-23T02:06:07;100112.06;;;14.35;100.00
59419;BME280;45224;50.904;6.038;2023-05-23T02:07:38;100102.41;;;14.48;100.00
59419;BME280;45224;50.904;6.038;2023-05-23T02:09:08;100104.19;;;14.41;100.00
59419;BME280;45224;50.904;6.038;2023-05-23T02:10:39;100097.44;;;14.25;100.00
59419;BME280;45224;50.904;6.038;2023-05-23T02:12:10;100105.13;;;14.37;100.00
59419;BME280;45224;50.904;6.038;2023-05-23T02:13:41;100100.81;;;14.33;100.00
59419;BME280;45224;50.904;6.038;2023-05-23T02:15:11;100102.53;;;14.36;100.00
59419;BME280;45224;50.904;6.038;2023-05-23T02:16:42;100094.84;;;14.25;100.00
59419;BME280;45224;50.904;6.038;2023-05-23T02:18:12;100094.88;;;14.22;100.00
59419;BME280;45224;50.904;6.038;2023-05-23T02:19:47;100103.50;;;14.25;100.00
59419;BME280;45224;50.904;6.038;2023-05-23T02:21:17;100102.88;;;14.03;100.00
59419;BME280;45224;50.904;6.038;2023-05-23T02:22:48;100105.28;;;14.22;100.00
59419;BME280;45224;50.904;6.038;2023-05-23T02:24:19;100098.44;;;14.15;100.00
59419;BME280;45224;50.904;6.038;2023-05-23T02:25:50;100100.91;;;14.25;100.00
59419;BME280;45224;50.904;6.038;2023-05-23T02:27:20;100099.16;;;14.29;99.26
59419;BME280;45224;50.904;6.038;2023-05-23T02:28:51;100104.25;;;14.37;98.90
59419;BME280;45224;50.904;6.038;2023-05-23T02:30:21;100105.97;;;14.38;98.73
59419;BME280;45224;50.904;6.038;2023-05-23T02:31:53;100112.03;;;14.38;98.57
59419;BME280;45224;50.904;6.038;2023-05-23T02:33:23;100113.81;;;14.36;98.41
59419;BME280;45224;50.904;6.038;2023-05-23T02:34:55;100108.69;;;14.27;99.13
59419;BME280;45224;50.904;6.038;2023-05-23T02:36:26;100112.06;;;14.35;98.67
59419;BME280;45224;50.904;6.038;2023-05-23T02:37:56;100112.06;;;14.35;98.49
59419;BME280;45224;50.904;6.038;2023-05-23T02:39:28;100114.59;;;14.41;98.10
59419;BME280;45224;50.904;6.038;2023-05-23T02:40:59;100113.69;;;14.47;97.51
59419;BME280;45224;50.904;6.038;2023-05-23T02:42:30;100111.94;;;14.49;97.24
59419;BME280;45224;50.904;6.038;2023-05-23T02:44:00;100109.34;;;14.49;97.01
59419;BME280;45224;50.904;6.038;2023-05-23T02:45:33;100111.94;;;14.48;97.51
59419;BME280;45224;50.904;6.038;2023-05-23T02:47:04;100118.03;;;14.43;97.47
59419;BME280;45224;50.904;6.038;2023-05-23T02:48:34;100122.56;;;14.29;98.60
59419;BME280;45224;50.904;6.038;2023-05-23T02:50:05;100119.06;;;14.29;98.58
59419;BME280;45224;50.904;6.038;2023-05-23T02:51:36;100121.56;;;14.39;97.98
59419;BME280;45224;50.904;6.038;2023-05-23T02:53:07;100130.38;;;14.28;99.15
59419;BME280;45224;50.904;6.038;2023-05-23T02:54:37;100127.66;;;14.35;98.56
59419;BME280;45224;50.904;6.038;2023-05-23T02:56:08;100119.13;;;14.21;99.61
59419;BME280;45224;50.904;6.038;2023-05-23T02:57:39;100126.00;;;14.31;98.64
59419;BME280;45224;50.904;6.038;2023-05-23T02:59:09;100134.59;;;14.36;98.59
59419;BME280;45224;50.904;6.038;2023-05-23T03:00:41;100130.31;;;14.32;98.73
59419;BME280;45224;50.904;6.038;2023-05-23T03:02:13;100129.50;;;14.24;99.68
59419;BME280;45224;50.904;6.038;2023-05-23T03:03:43;100126.84;;;14.30;98.94
59419;BME280;45224;50.904;6.038;2023-05-23T03:05:14;100127.78;;;14.26;99.59
59419;BME280;45224;50.904;6.038;2023-05-23T03:06:45;100127.81;;;14.23;100.00
59419;BME280;45224;50.904;6.038;2023-05-23T03:08:16;100131.16;;;14.34;98.92
59419;BME280;45224;50.904;6.038;2023-05-23T03:09:47;100133.78;;;14.31;99.26
59419;BME280;45224;50.904;6.038;2023-05-23T03:11:18;100131.28;;;14.22;100.00
59419;BME280;45224;50.904;6.038;2023-05-23T03:12:48;100136.44;;;14.25;100.00
59419;BME280;45224;50.904;6.038;2023-05-23T03:14:20;100136.47;;;14.22;100.00
59419;BME280;45224;50.904;6.038;2023-05-23T03:15:52;100133.03;;;14.20;100.00
59419;BME280;45224;50.904;6.038;2023-05-23T03:17:26;100139.03;;;14.28;99.25
59419;BME280;45224;50.904;6.038;2023-05-23T03:18:57;100148.47;;;14.35;99.12
59419;BME280;45224;50.904;6.038;2023-05-23T03:20:28;100133.81;;;14.30;99.38
59419;BME280;45224;50.904;6.038;2023-05-23T03:21:58;100143.41;;;14.24;100.00
59419;BME280;45224;50.904;6.038;2023-05-23T03:23:29;100141.59;;;14.31;99.65
59419;BME280;45224;50.904;6.038;2023-05-23T03:24:59;100142.44;;;14.32;99.53
59419;BME280;45224;50.904;6.038;2023-05-23T03:26:30;100141.69;;;14.22;100.00
59419;BME280;45224;50.904;6.038;2023-05-23T03:28:01;100142.53;;;14.22;100.00
59419;BME280;45224;50.904;6.038;2023-05-23T03:29:32;100139.94;;;14.19;100.00
59419;BME280;45224;50.904;6.038;2023-05-23T03:31:02;100144.53;;;13.91;100.00
59419;BME280;45224;50.904;6.038;2023-05-23T03:32:33;100147.00;;;14.08;100.00
59419;BME280;45224;50.904;6.038;2023-05-23T03:34:03;100150.34;;;14.21;100.00
59419;BME280;45224;50.904;6.038;2023-05-23T03:35:37;100149.53;;;14.17;100.00
59419;BME280;45224;50.904;6.038;2023-05-23T03:37:08;100144.34;;;14.13;100.00
59419;BME280;45224;50.904;6.038;2023-05-23T03:38:38;100136.50;;;14.19;100.00
59419;BME280;45224;50.904;6.038;2023-05-23T03:40:09;100148.75;;;14.07;100.00
59419;BME280;45224;50.904;6.038;2023-05-23T03:41:40;100141.75;;;14.13;100.00
59419;BME280;45224;50.904;6.038;2023-05-23T03:43:10;100149.56;;;14.13;100.00
59419;BME280;45224;50.904;6.038;2023-05-23T03:44:44;100146.94;;;14.16;100.00
59419;BME280;45224;50.904;6.038;2023-05-23T03:46:15;100146.94;;;14.13;100.00
59419;BME280;45224;50.904;6.038;2023-05-23T03:47:45;100153.84;;;14.20;100.00
59419;BME280;45224;50.904;6.038;2023-05-23T03:49:16;100152.19;;;14.08;100.00
59419;BME280;45224;50.904;6.038;2023-05-23T03:50:46;100161.66;;;14.18;100.00
59419;BME280;45224;50.904;6.038;2023-05-23T03:52:17;100159.03;;;14.20;100.00
59419;BME280;45224;50.904;6.038;2023-05-23T03:53:48;100160.03;;;14.05;100.00
59419;BME280;45224;50.904;6.038;2023-05-23T03:55:21;100159.13;;;14.11;100.00
59419;BME280;45224;50.904;6.038;2023-05-23T03:56:53;100167.72;;;14.16;100.00
59419;BME280;45224;50.904;6.038;2023-05-23T03:58:24;100167.84;;;14.06;100.00
59419;BME280;45224;50.904;6.038;2023-05-23T03:59:59;100171.34;;;13.99;100.00
59419;BME280;45224;50.904;6.038;2023-05-23T04:01:30;100165.19;;;14.10;100.00
59419;BME280;45224;50.904;6.038;2023-05-23T04:03:00;100166.97;;;14.04;100.00
59419;BME280;45224;50.904;6.038;2023-05-23T04:04:31;100173.97;;;13.93;100.00
59419;BME280;45224;50.904;6.038;2023-05-23T04:06:02;100179.16;;;13.98;100.00
59419;BME280;45224;50.904;6.038;2023-05-23T04:07:33;100169.63;;;13.97;100.00
59419;BME280;45224;50.904;6.038;2023-05-23T04:09:04;100180.94;;;13.90;100.00
59419;BME280;45224;50.904;6.038;2023-05-23T04:10:38;100179.19;;;13.90;100.00
59419;BME280;45224;50.904;6.038;2023-05-23T04:12:09;100175.75;;;13.90;100.00
59419;BME280;45224;50.904;6.038;2023-05-23T04:13:40;100170.50;;;13.96;100.00
59419;BME280;45224;50.904;6.038;2023-05-23T04:15:12;100179.38;;;13.68;100.00
59419;BME280;45224;50.904;6.038;2023-05-23T04:16:53;100181.88;;;13.81;100.00
59419;BME280;45224;50.904;6.038;2023-05-23T04:18:24;100187.00;;;13.90;100.00
59419;BME280;45224;50.904;6.038;2023-05-23T04:19:55;100185.25;;;13.95;100.00
59419;BME280;45224;50.904;6.038;2023-05-23T04:21:26;100189.69;;;13.78;100.00
59419;BME280;45224;50.904;6.038;2023-05-23T04:23:08;100189.69;;;13.79;100.00
59419;BME280;45224;50.904;6.038;2023-05-23T04:24:42;100188.03;;;13.64;100.00
59419;BME280;45224;50.904;6.038;2023-05-23T04:26:13;100176.75;;;13.72;100.00
59419;BME280;45224;50.904;6.038;2023-05-23T04:27:51;100187.94;;;13.83;100.00
59419;BME280;45224;50.904;6.038;2023-05-23T04:29:23;100187.13;;;13.75;100.00
59419;BME280;45224;50.904;6.038;2023-05-23T04:30:55;100180.16;;;13.77;100.00
59419;BME280;45224;50.904;6.038;2023-05-23T04:32:29;100179.22;;;13.87;100.00
59419;BME280;45224;50.904;6.038;2023-05-23T04:34:00;100180.94;;;13.91;100.00
59419;BME280;45224;50.904;6.038;2023-05-23T04:35:32;100185.34;;;13.80;100.00
59419;BME280;45224;50.904;6.038;2023-05-23T04:37:03;100185.38;;;13.77;100.00
59419;BME280;45224;50.904;6.038;2023-05-23T04:38:35;100187.13;;;13.76;100.00
59419;BME280;45224;50.904;6.038;2023-05-23T04:40:08;100180.16;;;13.80;100.00
59419;BME280;45224;50.904;6.038;2023-05-23T04:41:46;100180.97;;;13.86;100.00
59419;BME280;45224;50.904;6.038;2023-05-23T04:43:36;100191.38;;;13.83;100.00
59419;BME280;45224;50.904;6.038;2023-05-23T04:45:30;100186.13;;;13.94;100.00
59419;BME280;45224;50.904;6.038;2023-05-23T04:47:07;100195.59;;;13.98;100.00
59419;BME280;45224;50.904;6.038;2023-05-23T04:49:02;100183.59;;;13.82;100.00
59419;BME280;45224;50.904;6.038;2023-05-23T04:50:33;100192.22;;;13.87;100.00
59419;BME280;45224;50.904;6.038;2023-05-23T04:52:05;100201.69;;;13.99;100.00
59419;BME280;45224;50.904;6.038;2023-05-23T04:53:36;100192.97;;;14.03;99.28
59419;BME280;45224;50.904;6.038;2023-05-23T04:55:08;100195.53;;;14.07;99.29
59419;BME280;45224;50.904;6.038;2023-05-23T04:56:39;100192.03;;;14.13;98.60
59419;BME280;45224;50.904;6.038;2023-05-23T04:58:10;100190.28;;;14.17;97.87
59419;BME280;45224;50.904;6.038;2023-05-23T04:59:42;100190.31;;;14.11;99.33
59419;BME280;45224;50.904;6.038;2023-05-23T05:01:13;100189.44;;;14.12;98.86
59419;BME280;45224;50.904;6.038;2023-05-23T05:02:44;100199.91;;;14.04;99.44
59419;BME280;45224;50.904;6.038;2023-05-23T05:04:15;100190.31;;;14.12;99.13
59419;BME280;45224;50.904;6.038;2023-05-23T05:05:47;100197.22;;;14.15;98.67
59419;BME280;45224;50.904;6.038;2023-05-23T05:07:19;100189.34;;;14.22;97.79
59419;BME280;45224;50.904;6.038;2023-05-23T05:08:50;100184.22;;;14.16;98.00
59419;BME280;45224;50.904;6.038;2023-05-23T05:10:20;100184.25;;;14.13;98.46
59419;BME280;45224;50.904;6.038;2023-05-23T05:11:51;100191.13;;;14.16;98.34
59419;BME280;45224;50.904;6.038;2023-05-23T05:13:23;100193.72;;;14.16;99.07
59419;BME280;45224;50.904;6.038;2023-05-23T05:14:56;100188.50;;;14.19;98.18
59419;BME280;45224;50.904;6.038;2023-05-23T05:16:26;100190.28;;;14.14;98.43
59419;BME280;45224;50.904;6.038;2023-05-23T05:17:57;100195.47;;;14.17;97.97
59419;BME280;45224;50.904;6.038;2023-05-23T05:19:27;100200.63;;;14.23;97.59
59419;BME280;45224;50.904;6.038;2023-05-23T05:20:58;100193.72;;;14.17;97.75
59419;BME280;45224;50.904;6.038;2023-05-23T05:22:29;100202.31;;;14.27;97.22
59419;BME280;45224;50.904;6.038;2023-05-23T05:23:59;100211.00;;;14.26;97.24
59419;BME280;45224;50.904;6.038;2023-05-23T05:25:30;100212.75;;;14.22;97.43
59419;BME280;45224;50.904;6.038;2023-05-23T05:27:02;100208.41;;;14.28;97.03
59419;BME280;45224;50.904;6.038;2023-05-23T05:28:33;100205.84;;;14.21;97.45
59419;BME280;45224;50.904;6.038;2023-05-23T05:30:07;100203.28;;;14.17;97.54
59419;BME280;45224;50.904;6.038;2023-05-23T05:31:47;100213.66;;;14.17;97.93
59419;BME280;45224;50.904;6.038;2023-05-23T05:33:21;100213.66;;;14.20;97.26
59419;BME280;45224;50.904;6.038;2023-05-23T05:35:02;100207.63;;;14.16;97.64
59419;BME280;45224;50.904;6.038;2023-05-23T05:36:34;100215.53;;;13.98;99.42
59419;BME280;45224;50.904;6.038;2023-05-23T05:38:06;100225.13;;;13.88;100.00
59419;BME280;45224;50.904;6.038;2023-05-23T05:39:38;100213.78;;;14.00;99.57
59419;BME280;45224;50.904;6.038;2023-05-23T05:41:09;100226.00;;;13.88;100.00
59419;BME280;45224;50.904;6.038;2023-05-23T05:42:42;100215.50;;;14.04;99.24
59419;BME280;45224;50.904;6.038;2023-05-23T05:44:14;100215.44;;;14.12;99.03
59419;BME280;45224;50.904;6.038;2023-05-23T05:45:44;100212.81;;;14.18;98.39
59419;BME280;45224;50.904;6.038;2023-05-23T05:47:15;100216.19;;;14.28;97.66
59419;BME280;45224;50.904;6.038;2023-05-23T05:48:46;100218.06;;;14.12;98.74
59419;BME280;45224;50.904;6.038;2023-05-23T05:50:20;100221.41;;;14.26;98.15
59419;BME280;45224;50.904;6.038;2023-05-23T05:51:50;100221.50;;;14.14;98.72
59419;BME280;45224;50.904;6.038;2023-05-23T05:53:21;100220.69;;;14.04;98.83
59419;BME280;45224;50.904;6.038;2023-05-23T05:54:51;100221.56;;;14.04;99.62
59419;BME280;45224;50.904;6.038;2023-05-23T05:56:23;100230.31;;;13.90;100.00
59419;BME280;45224;50.904;6.038;2023-05-23T05:57:53;100236.44;;;13.82;100.00
59419;BME280;45224;50.904;6.038;2023-05-23T05:59:25;100232.13;;;13.80;100.00
59419;BME280;45224;50.904;6.038;2023-05-23T06:00:56;100232.91;;;13.93;100.00
59419;BME280;45224;50.904;6.038;2023-05-23T06:02:28;100231.13;;;14.01;99.76
59419;BME280;45224;50.904;6.038;2023-05-23T06:03:59;100228.56;;;13.93;99.74
59419;BME280;45224;50.904;6.038;2023-05-23T06:05:29;100230.22;;;14.06;99.32
59419;BME280;45224;50.904;6.038;2023-05-23T06:07:00;100231.91;;;14.14;98.64
59419;BME280;45224;50.904;6.038;2023-05-23T06:08:31;100219.78;;;14.10;97.81
59419;BME280;45224;50.904;6.038;2023-05-23T06:10:02;100229.28;;;14.17;97.86
59419;BME280;45224;50.904;6.038;2023-05-23T06:11:33;100236.16;;;14.21;97.46
59419;BME280;45224;50.904;6.038;2023-05-23T06:13:04;100233.66;;;14.12;97.67
59419;BME280;45224;50.904;6.038;2023-05-23T06:14:37;100229.31;;;14.09;97.97
59419;BME280;45224;50.904;6.038;2023-05-23T06:16:07;100237.13;;;14.09;97.85
59419;BME280;45224;50.904;6.038;2023-05-23T06:17:38;100230.22;;;14.06;98.12
59419;BME280;45224;50.904;6.038;2023-05-23T06:19:09;100228.78;;;13.59;100.00
59419;BME280;45224;50.904;6.038;2023-05-23T06:20:40;100241.59;;;13.88;99.43
59419;BME280;45224;50.904;6.038;2023-05-23T06:22:15;100242.47;;;13.92;99.44
59419;BME280;45224;50.904;6.038;2023-05-23T06:23:46;100239.78;;;13.98;98.90
59419;BME280;45224;50.904;6.038;2023-05-23T06:25:17;100234.56;;;14.01;98.09
59419;BME280;45224;50.904;6.038;2023-05-23T06:26:50;100243.22;;;14.06;98.48
59419;BME280;45224;50.904;6.038;2023-05-23T06:28:21;100239.72;;;14.11;97.78
59419;BME280;45224;50.904;6.038;2023-05-23T06:29:52;100245.78;;;14.10;98.11
59419;BME280;45224;50.904;6.038;2023-05-23T06:31:22;100234.53;;;14.09;97.88
59419;BME280;45224;50.904;6.038;2023-05-23T06:32:53;100249.28;;;14.09;98.29
59419;BME280;45224;50.904;6.038;2023-05-23T06:34:23;100246.72;;;13.99;99.17
59419;BME280;45224;50.904;6.038;2023-05-23T06:35:54;100240.69;;;13.97;99.67
59419;BME280;45224;50.904;6.038;2023-05-23T06:37:24;100242.31;;;14.12;99.28
59419;BME280;45224;50.904;6.038;2023-05-23T06:38:55;100249.31;;;14.02;100.00
59419;BME280;45224;50.904;6.038;2023-05-23T06:40:26;100246.69;;;14.04;100.00
59419;BME280;45224;50.904;6.038;2023-05-23T06:41:57;100243.34;;;13.88;100.00
59419;BME280;45224;50.904;6.038;2023-05-23T06:43:27;100239.84;;;13.95;100.00
59419;BME280;45224;50.904;6.038;2023-05-23T06:45:07;100251.97;;;13.90;100.00
59419;BME280;45224;50.904;6.038;2023-05-23T06:46:37;100256.31;;;13.90;100.00
59419;BME280;45224;50.904;6.038;2023-05-23T06:48:08;100251.13;;;13.91;100.00
59419;BME280;45224;50.904;6.038;2023-05-23T06:49:40;100257.97;;;14.01;100.00
59419;BME280;45224;50.904;6.038;2023-05-23T06:51:11;100256.19;;;14.08;100.00
59419;BME280;45224;50.904;6.038;2023-05-23T06:52:41;100264.09;;;13.93;100.00
59419;BME280;45224;50.904;6.038;2023-05-23T06:54:12;100258.97;;;13.79;100.00
59419;BME280;45224;50.904;6.038;2023-05-23T06:55:43;100261.50;;;13.91;100.00
59419;BME280;45224;50.904;6.038;2023-05-23T06:57:17;100262.28;;;14.04;100.00
59419;BME280;45224;50.904;6.038;2023-05-23T06:58:47;100264.84;;;14.12;100.00
59419;BME280;45224;50.904;6.038;2023-05-23T07:00:18;100272.63;;;14.18;100.00
59419;BME280;45224;50.904;6.038;2023-05-23T07:02:09;100270.88;;;14.17;100.00
59419;BME280;45224;50.904;6.038;2023-05-23T07:03:40;100264.75;;;14.22;100.00
59419;BME280;45224;50.904;6.038;2023-05-23T07:05:13;100263.91;;;14.22;100.00
59419;BME280;45224;50.904;6.038;2023-05-23T07:06:50;100273.47;;;14.20;100.00
59419;BME280;45224;50.904;6.038;2023-05-23T07:08:22;100268.47;;;13.86;100.00
59419;BME280;45224;50.904;6.038;2023-05-23T07:10:03;100266.69;;;13.97;100.00
59419;BME280;45224;50.904;6.038;2023-05-23T07:11:35;100270.13;;;13.96;100.00
59419;BME280;45224;50.904;6.038;2023-05-23T07:13:06;100270.97;;;13.98;100.00
59419;BME280;45224;50.904;6.038;2023-05-23T07:14:37;100277.88;;;14.05;100.00
59419;BME280;45224;50.904;6.038;2023-05-23T07:16:09;100278.00;;;13.85;100.00
59419;BME280;45224;50.904;6.038;2023-05-23T07:17:47;100281.38;;;14.00;100.00
59419;BME280;45224;50.904;6.038;2023-05-23T07:19:18;100282.22;;;14.06;100.00
59419;BME280;45224;50.904;6.038;2023-05-23T07:20:53;100276.16;;;14.01;100.00
59419;BME280;45224;50.904;6.038;2023-05-23T07:22:24;100287.38;;;14.10;100.00
59419;BME280;45224;50.904;6.038;2023-05-23T07:23:55;100284.88;;;13.94;100.00
59419;BME280;45224;50.904;6.038;2023-05-23T07:25:26;100276.22;;;13.95;100.00
59419;BME280;45224;50.904;6.038;2023-05-23T07:26:57;100282.19;;;14.10;100.00
59419;BME280;45224;50.904;6.038;2023-05-23T07:28:29;100283.91;;;14.14;100.00
59419;BME280;45224;50.904;6.038;2023-05-23T07:30:01;100282.13;;;14.16;100.00
59419;BME280;45224;50.904;6.038;2023-05-23T07:31:33;100287.34;;;14.16;100.00
59419;BME280;45224;50.904;6.038;2023-05-23T07:33:05;100283.84;;;14.20;100.00
59419;BME280;45224;50.904;6.038;2023-05-23T07:34:37;100290.75;;;14.21;100.00
59419;BME280;45224;50.904;6.038;2023-05-23T07:36:07;100287.38;;;14.11;100.00
59419;BME280;45224;50.904;6.038;2023-05-23T07:37:38;100289.94;;;14.16;100.00
59419;BME280;45224;50.904;6.038;2023-05-23T07:39:08;100292.56;;;14.13;100.00
59419;BME280;45224;50.904;6.038;2023-05-23T07:40:40;100297.78;;;14.10;100.00
59419;BME280;45224;50.904;6.038;2023-05-23T07:42:10;100289.13;;;14.07;100.00
59419;BME280;45224;50.904;6.038;2023-05-23T07:43:41;100297.72;;;14.20;100.00
59419;BME280;45224;50.904;6.038;2023-05-23T07:45:12;100296.94;;;14.07;100.00
59419;BME280;45224;50.904;6.038;2023-05-23T07:46:46;100295.16;;;14.11;100.00
59419;BME280;45224;50.904;6.038;2023-05-23T07:48:16;100290.88;;;14.09;100.00
59419;BME280;45224;50.904;6.038;2023-05-23T07:49:47;100295.16;;;14.11;100.00
59419;BME280;45224;50.904;6.038;2023-05-23T07:51:17;100292.56;;;14.13;100.00
59419;BME280;45224;50.904;6.038;2023-05-23T07:52:51;100298.78;;;13.88;100.00
59419;BME280;45224;50.904;6.038;2023-05-23T07:54:27;100303.94;;;13.96;100.00
59419;BME280;45224;50.904;6.038;2023-05-23T07:56:02;100297.91;;;13.91;100.00
59419;BME280;45224;50.904;6.038;2023-05-23T07:57:36;100303.13;;;13.88;100.00
59419;BME280;45224;50.904;6.038;2023-05-23T07:59:08;100291.88;;;13.83;100.00
59419;BME280;45224;50.904;6.038;2023-05-23T08:00:38;100303.13;;;13.88;100.00
59419;BME280;45224;50.904;6.038;2023-05-23T08:02:18;100303.25;;;13.63;100.00
59419;BME280;45224;50.904;6.038;2023-05-23T08:03:49;100307.63;;;13.52;100.00
59419;BME280;45224;50.904;6.038;2023-05-23T08:05:27;100308.47;;;13.57;100.00